createdAt,value
2022-10-06T00:02:06.869Z,100.00
2022-10-06T00:04:37.025Z,100.00
2022-10-06T00:07:05.682Z,100.00
2022-10-06T00:09:34.337Z,100.00
2022-10-06T00:12:04.662Z,100.00
2022-10-06T00:14:34.859Z,100.00
2022-10-06T00:17:03.506Z,100.00
2022-10-06T00:19:32.114Z,100.00
2022-10-06T00:22:00.742Z,100.00
2022-10-06T00:24:32.251Z,100.00
2022-10-06T00:27:03.295Z,100.00
2022-10-06T00:29:32.008Z,100.00
2022-10-06T00:32:00.608Z,100.00
2022-10-06T00:34:35.343Z,100.00
2022-10-06T00:37:04.220Z,100.00
2022-10-06T00:39:32.813Z,100.00
2022-10-06T00:42:01.480Z,100.00
2022-10-06T00:44:31.555Z,100.00
2022-10-06T00:47:06.468Z,100.00
2022-10-06T00:49:37.949Z,100.00
2022-10-06T00:52:09.716Z,100.00
2022-10-06T00:54:39.189Z,100.00
2022-10-06T00:57:08.267Z,100.00
2022-10-06T00:59:38.525Z,100.00
2022-10-06T01:02:26.235Z,100.00
2022-10-06T01:05:02.955Z,100.00
2022-10-06T01:13:47.310Z,100.00
2022-10-06T01:16:19.068Z,100.00
2022-10-06T01:18:50.193Z,100.00
2022-10-06T01:21:47.659Z,100.00
2022-10-06T01:24:18.749Z,100.00
2022-10-06T01:26:50.322Z,100.00
2022-10-06T01:29:19.792Z,100.00
2022-10-06T01:31:48.583Z,100.00
2022-10-06T01:34:17.149Z,100.00
2022-10-06T01:36:46.702Z,100.00
2022-10-06T01:39:15.314Z,100.00
2022-10-06T01:41:45.546Z,100.00
2022-10-06T01:44:14.643Z,100.00
2022-10-06T01:46:43.245Z,100.00
2022-10-06T01:49:12.005Z,100.00
2022-10-06T01:51:40.645Z,100.00
2022-10-06T01:54:09.584Z,100.00
2022-10-06T01:56:38.274Z,100.00
2022-10-06T01:59:08.599Z,100.00
2022-10-06T02:01:37.407Z,100.00
2022-10-06T02:04:06.166Z,100.00
2022-10-06T02:06:35.291Z,100.00
2022-10-06T02:09:05.447Z,100.00
2022-10-06T02:11:34.053Z,100.00
2022-10-06T02:14:02.690Z,100.00
2022-10-06T02:16:31.952Z,100.00
2022-10-06T02:19:00.561Z,100.00
2022-10-06T02:21:29.438Z,100.00
2022-10-06T02:24:00.931Z,100.00
2022-10-06T02:26:29.715Z,100.00
2022-10-06T02:28:59.941Z,100.00
2022-10-06T02:31:28.734Z,100.00
2022-10-06T02:33:58.971Z,100.00
2022-10-06T02:36:29.976Z,100.00
2022-10-06T02:38:58.784Z,100.00
2022-10-06T02:41:27.364Z,100.00
2022-10-06T02:43:56.031Z,100.00
2022-10-06T02:46:25.168Z,100.00
2022-10-06T02:48:56.922Z,100.00
2022-10-06T02:51:25.891Z,100.00
2022-10-06T02:53:54.603Z,100.00
2022-10-06T02:56:25.698Z,100.00
2022-10-06T02:58:55.654Z,100.00
2022-10-06T03:01:26.855Z,100.00
2022-10-06T03:04:00.749Z,100.00
2022-10-06T03:06:34.672Z,100.00
2022-10-06T03:12:15.242Z,100.00
2022-10-06T03:14:47.333Z,100.00
2022-10-06T03:17:20.215Z,100.00
2022-10-06T03:19:48.898Z,100.00
2022-10-06T03:22:18.957Z,100.00
2022-10-06T03:24:49.233Z,100.00
2022-10-06T03:27:17.862Z,100.00
2022-10-06T03:29:49.209Z,100.00
2022-10-06T03:32:23.548Z,100.00
2022-10-06T03:34:59.903Z,100.00
2022-10-06T04:00:04.600Z,100.00
2022-10-06T04:02:33.388Z,100.00
2022-10-06T04:05:12.838Z,100.00
2022-10-06T04:07:40.104Z,100.00
2022-10-06T04:10:13.107Z,100.00
2022-10-06T04:12:41.746Z,100.00
2022-10-06T04:15:16.098Z,100.00
2022-10-06T04:17:52.379Z,100.00
2022-10-06T04:20:21.031Z,100.00
2022-10-06T04:22:51.825Z,100.00
2022-10-06T04:25:20.356Z,100.00
2022-10-06T04:27:48.975Z,100.00
2022-10-06T04:30:17.715Z,100.00
2022-10-06T04:32:46.485Z,100.00
2022-10-06T04:35:15.406Z,100.00
2022-10-06T04:37:46.768Z,100.00
2022-10-06T04:40:20.233Z,100.00
2022-10-06T04:42:55.270Z,100.00
2022-10-06T04:51:21.031Z,100.00
2022-10-06T04:53:55.593Z,100.00
2022-10-06T04:56:34.776Z,100.00
2022-10-06T04:59:10.245Z,100.00
2022-10-06T05:01:40.909Z,100.00
2022-10-06T05:04:11.253Z,100.00
2022-10-06T05:06:43.815Z,100.00
2022-10-06T05:09:15.818Z,100.00
2022-10-06T05:11:44.802Z,100.00
2022-10-06T05:14:16.695Z,100.00
2022-10-06T05:16:45.707Z,100.00
2022-10-06T05:19:14.821Z,100.00
2022-10-06T05:21:44.877Z,100.00
2022-10-06T05:24:13.604Z,100.00
2022-10-06T05:26:48.428Z,100.00
2022-10-06T05:29:18.700Z,100.00
2022-10-06T05:31:47.335Z,100.00
2022-10-06T05:34:16.014Z,100.00
2022-10-06T05:36:44.636Z,100.00
2022-10-06T05:39:18.360Z,100.00
2022-10-06T05:41:53.287Z,100.00
2022-10-06T05:44:22.701Z,100.00
2022-10-06T05:46:51.373Z,100.00
2022-10-06T05:49:19.994Z,100.00
2022-10-06T05:51:54.720Z,100.00
2022-10-06T05:54:23.578Z,100.00
2022-10-06T05:56:52.239Z,100.00
2022-10-06T05:59:21.155Z,100.00
2022-10-06T06:01:49.856Z,100.00
2022-10-06T06:04:18.676Z,100.00
2022-10-06T06:06:48.884Z,100.00
2022-10-06T06:09:22.175Z,100.00
2022-10-06T06:11:56.296Z,100.00
2022-10-06T06:17:34.888Z,100.00
2022-10-06T06:20:03.924Z,100.00
2022-10-06T06:22:40.400Z,100.00
2022-10-06T06:25:09.436Z,100.00
2022-10-06T06:27:39.223Z,100.00
2022-10-06T06:30:09.915Z,100.00
2022-10-06T06:32:45.506Z,100.00
2022-10-06T06:35:18.536Z,100.00
2022-10-06T06:37:49.168Z,100.00
2022-10-06T06:40:18.016Z,100.00
2022-10-06T06:42:50.371Z,100.00
2022-10-06T06:45:17.140Z,100.00
2022-10-06T06:47:48.012Z,100.00
2022-10-06T06:50:17.358Z,100.00
2022-10-06T06:52:49.084Z,100.00
2022-10-06T06:55:40.190Z,100.00
2022-10-06T06:58:29.924Z,100.00
2022-10-06T07:00:54.393Z,100.00
2022-10-06T07:03:55.486Z,100.00
2022-10-06T07:05:59.265Z,100.00
2022-10-06T07:08:29.447Z,100.00
2022-10-06T07:11:00.980Z,100.00
2022-10-06T07:13:29.694Z,100.00
2022-10-06T07:16:42.273Z,100.00
2022-10-06T07:19:30.606Z,100.00
2022-10-06T07:22:23.087Z,100.00
2022-10-06T07:24:55.759Z,100.00
2022-10-06T07:27:24.955Z,100.00
2022-10-06T07:29:57.499Z,100.00
2022-10-06T07:32:36.527Z,100.00
2022-10-06T07:35:03.334Z,100.00
2022-10-06T07:37:35.078Z,100.00
2022-10-06T07:40:05.705Z,100.00
2022-10-06T07:42:52.409Z,100.00
2022-10-06T07:45:44.115Z,100.00
2022-10-06T07:48:21.556Z,100.00
2022-10-06T07:50:54.710Z,100.00
2022-10-06T07:53:27.146Z,100.00
2022-10-06T07:59:08.696Z,100.00
2022-10-06T08:01:41.130Z,100.00
2022-10-06T08:07:39.197Z,100.00
2022-10-06T08:10:10.488Z,100.00
2022-10-06T08:12:41.953Z,100.00
2022-10-06T08:15:19.261Z,100.00
2022-10-06T08:18:08.853Z,100.00
2022-10-06T08:20:36.694Z,100.00
2022-10-06T08:23:21.193Z,100.00
2022-10-06T08:25:55.476Z,100.00
2022-10-06T08:28:25.146Z,100.00
2022-10-06T08:31:03.188Z,100.00
2022-10-06T08:34:11.753Z,100.00
2022-10-06T08:36:45.008Z,100.00
2022-10-06T08:39:32.503Z,100.00
2022-10-06T08:41:56.480Z,100.00
2022-10-06T08:48:00.619Z,100.00
2022-10-06T08:50:35.646Z,100.00
2022-10-06T08:53:47.761Z,100.00
2022-10-06T08:56:35.307Z,100.00
2022-10-06T08:59:15.660Z,100.00
2022-10-06T09:01:57.378Z,100.00
2022-10-06T09:04:34.427Z,100.00
2022-10-06T09:07:31.027Z,100.00
2022-10-06T09:10:14.479Z,100.00
2022-10-06T09:13:21.770Z,100.00
2022-10-06T09:21:50.090Z,100.00
2022-10-06T09:33:59.587Z,100.00
2022-10-06T09:46:35.646Z,100.00
2022-10-06T09:49:29.507Z,100.00
2022-10-06T09:52:16.624Z,100.00
2022-10-06T09:54:51.146Z,100.00
2022-10-06T09:57:28.440Z,100.00
2022-10-06T10:00:03.245Z,100.00
2022-10-06T10:02:40.800Z,100.00
2022-10-06T10:05:27.949Z,100.00
2022-10-06T10:08:12.066Z,100.00
2022-10-06T10:10:45.700Z,100.00
2022-10-06T10:13:24.013Z,100.00
2022-10-06T10:19:11.358Z,100.00
2022-10-06T10:22:17.211Z,100.00
2022-10-06T10:28:35.296Z,100.00
2022-10-06T10:31:16.624Z,100.00
2022-10-06T10:34:11.871Z,100.00
2022-10-06T10:40:10.890Z,100.00
2022-10-06T10:43:11.893Z,100.00
2022-10-06T10:46:13.455Z,100.00
2022-10-06T10:49:08.044Z,92.96
2022-10-06T10:51:52.139Z,73.82
2022-10-06T10:54:46.719Z,71.71
2022-10-06T10:57:28.205Z,73.49
2022-10-06T11:00:19.703Z,71.09
2022-10-06T11:02:52.389Z,68.39
2022-10-06T11:05:46.792Z,54.79
2022-10-06T11:08:32.680Z,49.25
2022-10-06T11:11:16.758Z,46.20
2022-10-06T11:13:58.418Z,44.21
2022-10-06T11:17:02.272Z,42.87
2022-10-06T11:20:14.644Z,42.89
2022-10-06T11:22:49.991Z,41.15
2022-10-06T11:25:50.897Z,39.71
2022-10-06T11:28:52.686Z,39.55
2022-10-06T11:31:51.455Z,36.50
2022-10-06T11:34:44.343Z,35.30
2022-10-06T11:41:20.301Z,34.33
2022-10-06T11:44:45.414Z,34.45
2022-10-06T11:47:43.695Z,34.90
2022-10-06T11:50:56.511Z,34.06
2022-10-06T11:54:00.206Z,34.91
2022-10-06T11:57:40.685Z,34.27
2022-10-06T12:06:48.223Z,32.96
2022-10-06T12:09:45.067Z,33.68
2022-10-06T12:19:16.944Z,32.77
2022-10-06T12:22:07.008Z,32.54
2022-10-06T12:28:26.281Z,32.57
2022-10-06T12:35:03.448Z,32.70
2022-10-06T12:37:54.209Z,33.86
2022-10-06T12:44:03.622Z,32.44
2022-10-06T12:46:52.565Z,32.63
2022-10-06T12:49:46.842Z,32.50
2022-10-06T12:52:48.303Z,33.71
2022-10-06T13:50:27.615Z,33.76
2022-10-06T13:53:40.381Z,34.47
2022-10-06T13:59:47.439Z,34.16
2022-10-06T14:38:53.183Z,39.23
2022-10-06T14:41:29.599Z,40.58
2022-10-06T15:09:53.872Z,53.04
2022-10-06T15:12:33.874Z,56.55
2022-10-06T15:15:02.305Z,59.21
2022-10-06T15:17:42.567Z,63.94
2022-10-06T15:20:51.062Z,68.35
2022-10-06T15:23:19.982Z,71.47
2022-10-06T15:26:18.020Z,80.54
2022-10-06T15:30:30.880Z,82.37
2022-10-06T15:31:58.639Z,84.78
2022-10-06T15:34:36.027Z,90.19
2022-10-06T15:37:11.590Z,93.96
2022-10-06T15:49:04.144Z,100.00
2022-10-06T15:54:36.917Z,100.00
2022-10-06T15:57:31.942Z,100.00
2022-10-06T16:00:13.332Z,100.00
2022-10-06T16:02:43.044Z,100.00
2022-10-06T16:05:22.867Z,100.00
2022-10-06T16:07:51.345Z,100.00
2022-10-06T16:10:26.811Z,100.00
2022-10-06T16:13:04.305Z,100.00
2022-10-06T16:15:53.866Z,100.00
2022-10-06T16:18:31.664Z,100.00
2022-10-06T16:21:31.995Z,100.00
2022-10-06T16:24:10.838Z,100.00
2022-10-06T16:26:43.723Z,100.00
2022-10-06T16:29:26.622Z,100.00
2022-10-06T16:32:03.840Z,100.00
2022-10-06T16:34:32.832Z,100.00
2022-10-06T16:37:08.407Z,100.00
2022-10-06T16:39:37.667Z,100.00
2022-10-06T16:42:09.008Z,100.00
2022-10-06T16:44:41.585Z,100.00
2022-10-06T16:47:11.072Z,100.00
2022-10-06T16:49:47.095Z,100.00
2022-10-06T16:52:26.375Z,100.00
2022-10-06T16:54:56.272Z,100.00
2022-10-06T16:57:26.827Z,100.00
2022-10-06T16:59:57.254Z,100.00
2022-10-06T17:02:33.516Z,100.00
2022-10-06T17:05:04.343Z,100.00
2022-10-06T17:07:41.228Z,100.00
2022-10-06T17:10:21.511Z,100.00
2022-10-06T17:12:38.128Z,100.00
2022-10-06T17:15:07.977Z,100.00
2022-10-06T17:17:45.896Z,100.00
2022-10-06T17:20:15.664Z,100.00
2022-10-06T17:22:44.460Z,100.00
2022-10-06T17:25:14.287Z,100.00
2022-10-06T17:27:44.441Z,100.00
2022-10-06T17:30:15.069Z,100.00
2022-10-06T17:32:45.158Z,100.00
2022-10-06T17:35:13.815Z,100.00
2022-10-06T17:37:42.475Z,100.00
2022-10-06T17:40:11.590Z,100.00
2022-10-06T17:42:41.762Z,100.00
2022-10-06T17:45:11.188Z,100.00
2022-10-06T17:47:39.878Z,100.00
2022-10-06T17:50:08.828Z,100.00
2022-10-06T17:52:38.975Z,100.00
2022-10-06T17:55:08.964Z,100.00
2022-10-06T17:57:37.495Z,100.00
2022-10-06T18:00:07.611Z,100.00
2022-10-06T18:02:36.454Z,100.00
2022-10-06T18:05:05.785Z,100.00
2022-10-06T18:07:36.104Z,100.00
2022-10-06T18:10:22.973Z,100.00
2022-10-06T18:12:51.613Z,100.00
2022-10-06T18:15:20.383Z,100.00
2022-10-06T18:17:55.325Z,100.00
2022-10-06T18:20:25.517Z,100.00
2022-10-06T18:22:54.283Z,100.00
2022-10-06T18:25:26.857Z,100.00
2022-10-06T18:28:02.333Z,100.00
2022-10-06T18:30:32.536Z,100.00
2022-10-06T18:38:03.380Z,100.00
2022-10-06T18:40:33.694Z,100.00
2022-10-06T18:43:10.043Z,100.00
2022-10-06T18:45:57.194Z,100.00
2022-10-06T18:48:46.192Z,100.00
2022-10-06T18:51:15.111Z,100.00
2022-10-06T18:53:43.875Z,100.00
2022-10-06T18:56:13.738Z,100.00
2022-10-06T18:58:44.119Z,100.00
2022-10-06T19:01:13.327Z,100.00
2022-10-06T19:03:42.254Z,100.00
2022-10-06T19:06:11.008Z,100.00
2022-10-06T19:08:40.509Z,100.00
2022-10-06T19:11:30.665Z,100.00
2022-10-06T19:13:59.995Z,100.00
2022-10-06T19:16:30.156Z,100.00
2022-10-06T19:18:59.009Z,100.00
2022-10-06T19:21:27.570Z,100.00
2022-10-06T19:23:56.948Z,100.00
2022-10-06T19:26:27.080Z,100.00
2022-10-06T19:28:55.815Z,100.00
2022-10-06T19:31:24.572Z,100.00
2022-10-06T19:33:55.071Z,100.00
2022-10-06T19:36:23.785Z,100.00
2022-10-06T19:38:53.964Z,100.00
2022-10-06T19:41:40.251Z,100.00
2022-10-06T19:44:08.879Z,100.00
2022-10-06T19:46:38.924Z,100.00
2022-10-06T19:49:08.276Z,100.00
2022-10-06T19:51:41.335Z,100.00
2022-10-06T19:54:12.518Z,100.00
2022-10-06T19:56:42.202Z,100.00
2022-10-06T19:59:14.207Z,100.00
2022-10-06T20:01:42.927Z,100.00
2022-10-06T20:04:12.215Z,100.00
2022-10-06T20:06:46.303Z,100.00
2022-10-06T20:09:17.473Z,100.00
2022-10-06T20:11:49.185Z,100.00
2022-10-06T20:14:23.127Z,100.00
2022-10-06T20:16:53.936Z,100.00
2022-10-06T20:19:27.394Z,100.00
2022-10-06T20:21:55.392Z,100.00
2022-10-06T20:24:25.750Z,100.00
2022-10-06T20:26:57.905Z,100.00
2022-10-06T20:29:28.204Z,100.00
2022-10-06T20:31:58.961Z,100.00
2022-10-06T20:34:33.262Z,100.00
2022-10-06T20:37:04.328Z,100.00
2022-10-06T20:39:52.590Z,100.00
2022-10-06T20:42:22.113Z,100.00
2022-10-06T20:44:54.039Z,100.00
2022-10-06T20:47:23.445Z,100.00
2022-10-06T20:49:53.834Z,100.00
2022-10-06T20:52:24.343Z,100.00
2022-10-06T20:54:56.633Z,100.00
2022-10-06T20:57:44.102Z,100.00
2022-10-06T21:00:04.858Z,100.00
2022-10-06T21:02:36.029Z,100.00
2022-10-06T21:05:06.866Z,100.00
2022-10-06T21:07:40.149Z,100.00
2022-10-06T21:10:14.076Z,100.00
2022-10-06T21:39:19.207Z,100.00
2022-10-06T21:41:53.901Z,100.00
2022-10-06T21:44:22.764Z,100.00
2022-10-06T21:46:53.989Z,100.00
2022-10-06T21:49:39.786Z,100.00
2022-10-06T21:52:09.473Z,100.00
2022-10-06T21:54:52.864Z,100.00
2022-10-06T21:57:34.360Z,100.00
2022-10-06T22:00:17.600Z,100.00
2022-10-06T22:02:49.117Z,100.00
2022-10-06T22:05:17.808Z,100.00
2022-10-06T22:07:46.755Z,100.00
2022-10-06T22:10:20.676Z,100.00
2022-10-06T22:12:49.245Z,100.00
2022-10-06T22:15:18.000Z,100.00
2022-10-06T22:17:49.572Z,100.00
2022-10-06T22:20:18.234Z,100.00
2022-10-06T22:22:46.705Z,100.00
2022-10-06T22:25:20.013Z,100.00
2022-10-06T22:27:48.606Z,100.00
2022-10-06T22:30:17.294Z,100.00
2022-10-06T22:32:45.877Z,100.00
2022-10-06T22:35:14.484Z,100.00
2022-10-06T22:37:46.768Z,100.00
2022-10-06T22:40:18.478Z,100.00
2022-10-06T22:42:51.908Z,100.00
2022-10-06T22:45:20.209Z,100.00
2022-10-06T22:47:48.725Z,100.00
2022-10-06T22:50:17.297Z,100.00
2022-10-06T22:52:45.991Z,100.00
2022-10-06T22:55:14.718Z,100.00
2022-10-06T22:57:46.688Z,100.00
2022-10-06T23:00:16.104Z,100.00
2022-10-06T23:02:45.663Z,100.00
2022-10-06T23:05:14.370Z,100.00
2022-10-06T23:07:45.038Z,100.00
2022-10-06T23:10:13.992Z,100.00
2022-10-06T23:12:42.860Z,100.00
2022-10-06T23:15:13.330Z,100.00
2022-10-06T23:17:51.343Z,100.00
2022-10-06T23:20:23.890Z,100.00
2022-10-06T23:22:56.333Z,100.00
2022-10-06T23:25:27.268Z,100.00
2022-10-06T23:27:59.450Z,100.00
2022-10-06T23:30:32.543Z,100.00
2022-10-06T23:33:01.150Z,100.00
2022-10-06T23:35:29.790Z,100.00
2022-10-06T23:37:58.359Z,100.00
2022-10-06T23:40:28.427Z,100.00
2022-10-06T23:42:57.009Z,100.00
2022-10-06T23:45:25.824Z,100.00
2022-10-06T23:47:55.972Z,100.00
2022-10-06T23:50:24.610Z,100.00
2022-10-06T23:52:53.332Z,100.00
2022-10-06T23:55:24.219Z,100.00
2022-10-06T23:57:52.820Z,100.00
